x

South Brooks (46132) Wave Buoy

10:00 - Fri 9th Dec 2016 All times are PST. -8 hours from GMT.

  • Sig Wave height 13.8ft
  • Peak Period 11s
  • Wind
    13mph, 18mph gusts
  • Sea Temp 52°f
  • Ar Temp 46°f
  • Sea Pressure 1006.8mb
  • South Brooks
  • South Brooks

More Historic Weather Station data

Upgrade to MSW Pro to gain access to the past 30 days of data for over 8000 Wavebouys and Weather Stations around the globe.

Join Pro

Comparision Forecast

View Surf forecast
   
Sex 12/09 10:00 14ft 11s 13 18 mph 1006.8mb 52f 46f
9:00 15ft 10s 22 29 mph 1006.3mb 52f 47f
8:00 15.5ft 10s 22 27 mph 1005.7mb 52f 48f
7:00 13.5ft 10s 22 29 mph 1005.6mb 53f 47f
6:00 15.5ft 10s 22 31 mph 1004.9mb 52f 48f
5:00 16.5ft 10s 18 29 mph 1004.9mb 52f 46f
4:00 19.5ft 11s 40 51 mph 1003.7mb 52f 44f
3:00 20.5ft 11s 45 54 mph 1003.3mb 52f 43f
2:00 17.5ft 10s 43 54 mph 1003.3mb 52f 42f
1:00 16.5ft 10s 40 49 mph 1003.5mb 52f 41f
12:00 14.5ft 9s 40 47 mph 1004.4mb 52f 40f
Qui 12/08 11:00 13.5ft 10s 36 45 mph 1005.4mb 52f 41f
10:00 13ft 9s 38 45 mph 1006.1mb 52f 41f
9:00 11.5ft 9s 27 45 mph 1006.2mb 52f 46f
8:00 10.5ft 10s 22 29 mph 1006.4mb 52f 46f
7:00 10ft 8s 22 29 mph 1006.7mb 52f 46f
6:00 9ft 9s 25 31 mph 1007mb 51f 46f
5:00 8.5ft 8s 22 31 mph 1007.8mb 51f 46f
4:00 8.5ft 9s 20 27 mph 1008.5mb 51f 46f
3:00 8ft 9s 18 22 mph 1009mb 51f 45f
2:00 8ft 8s 18 22 mph 1009.9mb 51f 45f
1:00 7ft 9s 20 27 mph 1011mb 51f 44f
12:00 7.5ft 8s 16 20 mph 1012.5mb 51f 43f
11:00 7ft 8s 13 18 mph 1013.5mb 51f 43f
10:00 7ft 8s 16 20 mph 1013.8mb 51f 42f
9:00 6.5ft 7s 13 18 mph 1014.5mb 51f 41f
8:00 6ft 7s 13 18 mph 1015.3mb 51f 41f
7:00 6ft 7s 11 18 mph 1016.1mb 51f 41f
6:00 6ft 7s 11 16 mph 1016.8mb 51f 41f
5:00 5.5ft 7s 13 16 mph 1017.8mb 51f 41f
4:00 6ft 7s 13 18 mph 1018.6mb 51f 41f
3:00 5.5ft 7s 13 18 mph 1019.6mb 51f 41f
2:00 5.5ft 12s 13 18 mph 1020.4mb 51f 42f
1:00 6ft 13s 13 18 mph 1021.3mb 51f 41f
12:00 5ft 13s 13 18 mph 1021.8mb 51f 42f
Qua 12/07 11:00 5.5ft 13s 13 16 mph 1022.8mb 51f 42f
10:00 5.5ft 13s 13 18 mph 1023.5mb 51f 42f
9:00 6ft 14s 11 16 mph 1023.8mb 51f 42f
8:00 6ft 13s 11 18 mph 1024.4mb 52f 43f
7:00 6.5ft 14s 9 13 mph 1025.3mb 52f 43f
6:00 7ft 14s 11 13 mph 1025.8mb 52f 43f
5:00 6.5ft 7s 13 18 mph 1026.3mb 52f 43f
4:00 7ft 14s 18 22 mph 1026.7mb 52f 43f
3:00 7ft 7s 18 22 mph 1026.9mb 52f 43f
2:00 7ft 7s 20 22 mph 1027.2mb 52f 43f
1:00 7ft 7s 18 25 mph 1027.9mb 52f 43f
12:00 8ft 7s 22 27 mph 1027.7mb 52f 44f
11:00 8.5ft 6s 25 31 mph 1027.8mb 52f 44f
10:00 8ft 7s 25 31 mph 1027.7mb 52f 44f
9:00 7ft 7s 22 27 mph 1027.6mb 52f 43f
8:00 6.5ft 5s 22 29 mph 1027.2mb 52f 43f
7:00 6ft 9s 25 29 mph 1026.6mb 52f 44f
6:00 6ft 14s 20 27 mph 1027mb 52f 44f
5:00 5ft 9s 22 27 mph 1027.2mb 52f 42f
4:00 4.5ft 8s 18 25 mph 1027.6mb 51f 42f
3:00 4.5ft 10s 16 18 mph 1027.9mb 51f 42f
2:00 5ft 10s 16 18 mph 1027.5mb 50f 42f
1:00 5.5ft 9s 11 13 mph 1027.6mb 50f 42f
12:00 6ft 10s 7 11 mph 1027.6mb 50f 42f
Ter 12/06 11:00 6ft 11s 4 7 mph 1027.5mb 50f 40f
10:00 6ft 9s 2 9 mph 1026.8mb 50f 40f
9:00 5.5ft 10s 4 9 mph 1026.4mb 50f 39f
7:00 6ft 10s 13 18 mph 1025.4mb 51f 39f
6:00 7ft 12s 18 22 mph 1025.2mb 51f 40f
4:00 7ft 11s 20 25 mph 1024.6mb 51f 40f
3:00 8ft 9s 20 25 mph 1024.3mb 51f 40f
2:00 8ft 10s 20 27 mph 1023.8mb 51f 41f
1:00 9ft 10s 20 27 mph 1023.9mb 51f 41f
12:00 9ft 11s 20 25 mph 1023.8mb 51f 41f
9:00 9ft 11s 22 27 mph 1022.7mb 51f 42f
8:00 9ft 12s 20 27 mph 1022.2mb 52f 42f
7:00 8.5ft 13s 20 22 mph 1021.7mb 51f 42f
6:00 8.5ft 12s 11 18 mph 1021.7mb 51f 42f
5:00 9ft 12s 11 16 mph 1021.2mb 51f 42f
4:00 9.5ft 12s 13 16 mph 1020.8mb 51f 43f
3:00 9ft 13s 13 16 mph 1020.4mb 51f 43f
2:00 9ft 13s 13 18 mph 1019.9mb 51f 43f
1:00 10ft 12s 13 18 mph 1019.6mb 51f 43f
12:00 10ft 13s 13 18 mph 1019.1mb 51f 43f
Seg 12/05 11:00 12ft 12s 18 22 mph 1018.7mb 51f 43f
10:00 12.5ft 12s 20 22 mph 1018.3mb 51f 43f
9:00 12ft 14s 18 20 mph 1017.7mb 51f 43f
8:00 12ft 14s 13 20 mph 1017.1mb 51f 42f